Time;durP1;ratioP1;P1;durP2;ratioP2;P2;SDS_P1;SDS_P2;PMS_P1;PMS_P2;Temp;Humidity;BMP_temperature;BMP_pressure;BME280_temperature;BME280_humidity;BME280_pressure;Samples;Min_cycle;Max_cycle;Signal;HPM_P1;HPM_P2
2023/05/27 14:16:45;;;;;;;2.08;1.20;;;;;;;;;;7399941;19;20137;-89
2023/05/27 14:19:12;;;;;;;0.85;0.85;;;;;;;;;;7395773;19;20485;-88
2023/05/27 14:21:39;;;;;;;3.13;1.10;;;;;;;;;;7397918;19;20141;-89
2023/05/27 14:24:06;;;;;;;1.27;1.27;;;;;;;;;;7399136;19;20205;-88
2023/05/27 14:26:33;;;;;;;1.27;1.17;;;;;;;;;;7398048;19;20139;-89
2023/05/27 14:29:02;;;;;;;1.60;1.50;;;;;;;;;;7394982;19;20160;-90
2023/05/27 14:31:28;;;;;;;4.90;1.20;;;;;;;;;;7399082;19;20204;-88
2023/05/27 14:33:55;;;;;;;0.93;0.93;;;;;;;;;;7393762;19;20133;-90
2023/05/27 14:36:22;;;;;;;1.55;1.45;;;;;;;;;;7394587;19;20158;-88
2023/05/27 14:38:48;;;;;;;0.93;0.93;;;;;;;;;;7393571;19;20169;-89
2023/05/27 14:41:15;;;;;;;1.17;1.17;;;;;;;;;;7394393;19;20140;-90
2023/05/27 14:43:42;;;;;;;1.80;1.70;;;;;;;;;;7400695;19;20125;-88
2023/05/27 14:46:09;;;;;;;2.55;1.63;;;;;;;;;;7412837;19;20141;-88
2023/05/27 14:48:35;;;;;;;1.30;1.20;;;;;;;;;;7414238;19;20144;-89
2023/05/27 14:51:02;;;;;;;0.75;0.75;;;;;;;;;;7404102;19;20185;-88
2023/05/27 14:53:29;;;;;;;1.52;1.42;;;;;;;;;;7415315;19;20144;-91
2023/05/27 14:55:56;;;;;;;1.75;0.82;;;;;;;;;;7417077;19;20133;-90
2023/05/27 14:58:22;;;;;;;1.25;1.15;;;;;;;;;;7420763;19;20169;-88
2023/05/27 15:00:49;;;;;;;2.85;1.23;;;;;;;;;;7414745;19;20169;-89
2023/05/27 15:03:16;;;;;;;1.00;1.00;;;;;;;;;;7421186;19;20145;-87
2023/05/27 15:05:43;;;;;;;1.85;1.00;;;;;;;;;;7410975;19;20212;-89
2023/05/27 15:08:15;;;;;;;1.30;1.10;;;;;;;;;;7415452;19;20141;-89
2023/05/27 15:10:42;;;;;;;1.45;1.35;;;;;;;;;;7412272;19;20172;-90
2023/05/27 15:13:11;;;;;;;4.88;1.08;;;;;;;;;;7415502;19;20137;-88
2023/05/27 15:15:43;;;;;;;1.10;1.10;;;;;;;;;;7418063;19;20132;-89
2023/05/27 15:18:10;;;;;;;0.93;0.93;;;;;;;;;;7411517;19;20133;-90
2023/05/27 15:20:38;;;;;;;1.50;1.25;;;;;;;;;;7412254;19;20212;-91
2023/05/27 15:23:31;;;;;;;2.50;1.30;;;;;;;;;;7408192;19;20133;-90
2023/05/27 15:25:59;;;;;;;1.52;1.42;;;;;;;;;;7402792;19;20153;-90
2023/05/27 15:28:26;;;;;;;1.63;1.23;;;;;;;;;;7403416;19;20148;-90
2023/05/27 15:30:53;;;;;;;0.93;0.82;;;;;;;;;;7402385;19;20539;-90
2023/05/27 15:34:02;;;;;;;1.52;1.42;;;;;;;;;;7404072;19;20137;-90
2023/05/27 15:36:53;;;;;;;;;;;;;;;;;;;;;
2023/05/27 15:51:12;;;;;;;1.48;1.38;;;;;;;;;;7396363;19;20197;-88
2023/05/27 15:54:06;;;;;;;1.58;1.48;;;;;;;;;;7402089;19;20606;-89
2023/05/27 15:57:19;;;;;;;1.02;1.02;;;;;;;;;;7401301;19;20204;-89
2023/05/27 16:00:02;;;;;;;1.55;1.40;;;;;;;;;;7397517;19;20173;-88
2023/05/27 16:02:54;;;;;;;1.10;1.00;;;;;;;;;;7395323;19;20175;-89
2023/05/27 16:06:54;;;;;;;0.80;0.80;;;;;;;;;;7398046;19;20152;-89
2023/05/27 16:09:47;;;;;;;1.08;1.08;;;;;;;;;;7396692;19;20545;-88
2023/05/27 16:12:50;;;;;;;1.08;1.02;;;;;;;;;;7396954;19;20140;-88
2023/05/27 16:15:37;;;;;;;1.13;0.88;;;;;;;;;;7397898;19;20202;-89
2023/05/27 16:18:44;;;;;;;0.90;0.90;;;;;;;;;;7399134;19;20141;-89
2023/05/27 16:21:37;;;;;;;0.95;0.95;;;;;;;;;;7392370;19;20152;-89
2023/05/27 16:24:07;;;;;;;1.08;1.08;;;;;;;;;;7399269;19;20164;-88
2023/05/27 16:26:46;;;;;;;2.10;1.60;;;;;;;;;;7398559;19;20157;-89
2023/05/27 16:29:24;;;;;;;1.30;1.25;;;;;;;;;;7402384;19;20211;-91
2023/05/27 16:33:18;;;;;;;0.98;0.88;;;;;;;;;;7407082;19;20153;-91
2023/05/27 16:35:25;;;;;;;1.17;1.15;;;;;;;;;;7402250;19;20217;-90
2023/05/27 16:37:52;;;;;;;0.60;0.60;;;;;;;;;;7408074;19;20212;-91
2023/05/27 16:40:21;;;;;;;1.40;1.10;;;;;;;;;;7405101;19;20168;-90
2023/05/27 16:42:48;;;;;;;1.00;0.88;;;;;;;;;;7399830;19;20145;-92
2023/05/27 16:45:15;;;;;;;0.95;0.95;;;;;;;;;;7393673;19;20172;-92
2023/05/27 16:47:42;;;;;;;1.30;0.93;;;;;;;;;;7397169;19;20156;-92
2023/05/27 16:50:11;;;;;;;1.38;1.02;;;;;;;;;;7395573;19;20209;-91
2023/05/27 16:52:38;;;;;;;0.70;0.70;;;;;;;;;;7394390;19;20176;-92
2023/05/27 16:55:06;;;;;;;1.15;1.15;;;;;;;;;;7384291;19;20141;-91
2023/05/27 16:57:34;;;;;;;0.68;0.68;;;;;;;;;;7392310;19;20133;-91
2023/05/27 17:00:02;;;;;;;1.10;1.10;;;;;;;;;;7395011;19;20181;-92
2023/05/27 17:06:35;;;;;;;;;;;;;;;;;;;;;
2023/05/27 17:17:08;;;;;;;1.10;1.10;;;;;;;;;;7414236;19;20168;-91
2023/05/27 18:13:55;;;;;;;0.80;0.80;;;;;;;;;;7433759;19;20614;-89
2023/05/27 18:16:24;;;;;;;0.88;0.88;;;;;;;;;;7429009;19;20137;-90
2023/05/27 18:18:51;;;;;;;0.88;0.82;;;;;;;;;;7434480;19;20215;-90
2023/05/27 18:21:17;;;;;;;1.30;1.20;;;;;;;;;;7437683;19;20132;-89
2023/05/27 18:23:44;;;;;;;1.27;1.13;;;;;;;;;;7431569;19;20137;-90
2023/05/27 18:26:11;;;;;;;1.25;1.17;;;;;;;;;;7432291;19;20184;-90
2023/05/27 18:28:38;;;;;;;0.98;0.98;;;;;;;;;;7428623;19;20630;-89
2023/05/27 18:31:07;;;;;;;1.42;1.33;;;;;;;;;;7403882;19;20216;-89
2023/05/27 18:33:34;;;;;;;0.45;0.45;;;;;;;;;;7402773;19;20149;-89
2023/05/27 18:36:03;;;;;;;0.90;0.90;;;;;;;;;;7404262;19;20609;-88
2023/05/27 18:38:34;;;;;;;0.88;0.88;;;;;;;;;;7405364;19;20145;-89
2023/05/27 18:41:00;;;;;;;0.80;0.80;;;;;;;;;;7408716;19;20164;-88
2023/05/27 18:43:27;;;;;;;1.95;1.17;;;;;;;;;;7410083;19;20141;-89
2023/05/27 18:45:56;;;;;;;2.92;1.15;;;;;;;;;;7409630;19;20152;-89
2023/05/27 18:48:26;;;;;;;0.93;0.93;;;;;;;;;;7402868;19;20133;-89
2023/05/27 18:50:54;;;;;;;1.02;0.98;;;;;;;;;;7403492;19;20172;-89
2023/05/27 18:53:22;;;;;;;0.85;0.85;;;;;;;;;;7405525;19;20132;-88
2023/05/27 18:55:49;;;;;;;0.95;0.90;;;;;;;;;;7407738;19;20196;-88
2023/05/27 18:58:16;;;;;;;0.70;0.70;;;;;;;;;;7407035;19;20141;-89
2023/05/27 19:00:43;;;;;;;1.05;0.95;;;;;;;;;;7406506;19;20559;-88
2023/05/27 19:03:10;;;;;;;0.80;0.80;;;;;;;;;;7405855;19;20250;-89
2023/05/27 19:05:38;;;;;;;0.98;0.98;;;;;;;;;;7408476;19;20148;-88
2023/05/27 19:08:04;;;;;;;0.80;0.80;;;;;;;;;;7406629;19;20145;-89
2023/05/27 19:10:31;;;;;;;1.00;0.95;;;;;;;;;;7405791;19;20196;-88
2023/05/27 19:12:58;;;;;;;1.15;1.05;;;;;;;;;;7407763;19;20147;-88
2023/05/27 19:15:25;;;;;;;0.80;0.77;;;;;;;;;;7404288;19;20137;-89
2023/05/27 19:17:52;;;;;;;1.00;0.95;;;;;;;;;;7407490;19;20147;-89
2023/05/27 19:20:19;;;;;;;1.40;1.30;;;;;;;;;;7406203;19;20176;-88
2023/05/27 19:22:45;;;;;;;0.70;0.70;;;;;;;;;;7406581;19;20676;-92
2023/05/27 19:25:12;;;;;;;0.85;0.85;;;;;;;;;;7394346;19;20141;-91
2023/05/27 19:27:39;;;;;;;0.68;0.68;;;;;;;;;;7395590;19;20141;-91
2023/05/27 19:30:06;;;;;;;1.35;1.25;;;;;;;;;;7396155;19;20527;-90
2023/05/27 19:32:33;;;;;;;1.02;1.00;;;;;;;;;;7399715;19;20164;-91
2023/05/27 19:34:59;;;;;;;1.77;1.38;;;;;;;;;;7395126;19;20162;-91
2023/05/27 19:37:26;;;;;;;1.60;1.23;;;;;;;;;;7394423;19;20132;-91
2023/05/27 19:39:55;;;;;;;0.80;0.80;;;;;;;;;;7397522;19;20152;-91
2023/05/27 19:42:21;;;;;;;0.70;0.70;;;;;;;;;;7400282;19;20184;-89
2023/05/27 19:44:49;;;;;;;0.95;0.95;;;;;;;;;;7402799;19;20741;-90
2023/05/27 19:47:16;;;;;;;0.90;0.85;;;;;;;;;;7405507;19;20140;-90
2023/05/27 19:49:45;;;;;;;0.98;0.98;;;;;;;;;;7401275;19;20201;-88
2023/05/27 19:52:13;;;;;;;0.70;0.70;;;;;;;;;;7404365;19;20501;-89
2023/05/27 19:54:40;;;;;;;1.10;1.08;;;;;;;;;;7405690;19;20163;-87
2023/05/27 19:57:07;;;;;;;1.30;1.00;;;;;;;;;;7402016;19;20161;-90
2023/05/27 19:59:34;;;;;;;0.50;0.50;;;;;;;;;;7402923;19;20160;-89
2023/05/27 20:02:02;;;;;;;1.60;1.00;;;;;;;;;;7399593;19;20268;-90
2023/05/27 20:04:28;;;;;;;0.55;0.55;;;;;;;;;;7403337;19;20521;-90
2023/05/27 20:06:55;;;;;;;0.60;0.60;;;;;;;;;;7400946;19;20170;-89
2023/05/27 20:09:22;;;;;;;0.70;0.63;;;;;;;;;;7399471;19;20204;-89
2023/05/27 20:11:48;;;;;;;0.77;0.77;;;;;;;;;;7404488;19;20143;-90
2023/05/27 20:14:15;;;;;;;1.30;0.98;;;;;;;;;;7400426;19;20141;-90
2023/05/27 20:16:42;;;;;;;0.82;0.82;;;;;;;;;;7397466;19;20141;-90
2023/05/27 20:19:08;;;;;;;0.68;0.68;;;;;;;;;;7399802;19;20520;-89
2023/05/27 20:21:35;;;;;;;0.60;0.60;;;;;;;;;;7398582;19;20193;-89
2023/05/27 20:24:02;;;;;;;1.42;1.05;;;;;;;;;;7398434;19;20147;-89
2023/05/27 20:26:29;;;;;;;0.77;0.77;;;;;;;;;;7402315;19;20149;-89
2023/05/27 20:28:56;;;;;;;1.02;0.70;;;;;;;;;;7399750;19;20161;-90
2023/05/27 20:31:22;;;;;;;1.15;1.05;;;;;;;;;;7400472;19;20139;-90
2023/05/27 20:33:49;;;;;;;0.73;0.73;;;;;;;;;;7399085;19;20156;-89
2023/05/27 20:40:19;;;;;;;0.52;0.52;;;;;;;;;;7390379;19;20190;-91
2023/05/27 20:46:44;;;;;;;0.52;0.52;;;;;;;;;;7393208;19;20136;-93
2023/05/27 20:49:22;;;;;;;0.70;0.70;;;;;;;;;;7394942;19;20168;-93
2023/05/27 20:51:48;;;;;;;0.47;0.47;;;;;;;;;;7392565;19;20488;-93
2023/05/27 20:54:18;;;;;;;0.93;0.93;;;;;;;;;;7411471;19;20149;-94
2023/05/27 20:56:44;;;;;;;0.50;0.50;;;;;;;;;;7410790;19;20135;-94
2023/05/27 20:59:11;;;;;;;0.50;0.50;;;;;;;;;;7412855;19;20173;-95
2023/05/27 21:01:38;;;;;;;0.68;0.68;;;;;;;;;;7427424;19;20144;-94
2023/05/27 21:04:07;;;;;;;1.80;0.80;;;;;;;;;;7430317;19;20140;-93
2023/05/27 21:06:35;;;;;;;0.55;0.55;;;;;;;;;;7428139;19;20129;-94
2023/05/27 21:09:03;;;;;;;0.88;0.88;;;;;;;;;;7418668;19;20169;-95
2023/05/27 21:11:30;;;;;;;0.90;0.90;;;;;;;;;;7420681;19;20159;-95
2023/05/27 21:13:57;;;;;;;1.63;1.30;;;;;;;;;;7423339;19;20137;-95
2023/05/27 21:16:24;;;;;;;0.75;0.75;;;;;;;;;;7423465;19;20245;-95
2023/05/27 21:18:51;;;;;;;0.65;0.65;;;;;;;;;;7422045;19;20493;-94
2023/05/27 21:21:18;;;;;;;0.85;0.85;;;;;;;;;;7425389;19;20148;-96
2023/05/27 21:23:45;;;;;;;0.57;0.57;;;;;;;;;;7424874;19;20249;-95
2023/05/27 21:26:11;;;;;;;0.50;0.50;;;;;;;;;;7422324;19;20140;-95
2023/05/27 21:28:38;;;;;;;0.90;0.90;;;;;;;;;;7427174;19;20125;-95
2023/05/27 21:31:05;;;;;;;0.70;0.70;;;;;;;;;;7426196;19;20137;-95
2023/05/27 21:33:32;;;;;;;0.95;0.95;;;;;;;;;;7423892;19;20144;-95
2023/05/27 21:35:58;;;;;;;1.67;1.55;;;;;;;;;;7399808;19;20140;-94
2023/05/27 21:39:22;;;;;;;0.75;0.75;;;;;;;;;;7395156;19;20129;-93
2023/05/27 21:43:15;;;;;;;;;;;;;;;;;;;;;
2023/05/27 21:46:03;;;;;;;0.50;0.50;;;;;;;;;;7393409;19;20153;-93
2023/05/27 21:48:49;;;;;;;0.80;0.80;;;;;;;;;;7391493;19;20149;-93
2023/05/27 21:51:16;;;;;;;0.65;0.65;;;;;;;;;;7395060;19;20177;-93
2023/05/27 21:53:44;;;;;;;0.60;0.60;;;;;;;;;;7395467;19;20122;-92
2023/05/27 21:56:11;;;;;;;1.27;1.17;;;;;;;;;;7393611;19;20133;-94
2023/05/27 21:58:40;;;;;;;0.65;0.65;;;;;;;;;;7391552;19;20146;-92
2023/05/27 22:01:11;;;;;;;0.63;0.63;;;;;;;;;;7393658;19;20136;-92
2023/05/27 22:03:42;;;;;;;1.63;1.52;;;;;;;;;;7391631;19;20144;-93
2023/05/27 22:06:09;;;;;;;0.50;0.50;;;;;;;;;;7395551;19;20528;-93
